createdAt,value
2022-12-13T00:01:55.636Z,100999.84
2022-12-13T00:04:24.853Z,100993.94
2022-12-13T00:06:53.984Z,100973.19
2022-12-13T00:09:21.544Z,100980.53
2022-12-13T00:11:49.225Z,100975.53
2022-12-13T00:14:16.472Z,100978.25
2022-12-13T00:17:45.800Z,100983.38
2022-12-13T00:20:12.840Z,100985.94
2022-12-13T00:22:39.776Z,100975.69
2022-12-13T00:25:06.869Z,100963.81
2022-12-13T00:27:33.749Z,100966.47
2022-12-13T00:30:00.622Z,100964.78
2022-12-13T00:32:27.941Z,100952.94
2022-12-13T00:34:54.812Z,100953.94
2022-12-13T00:37:21.687Z,100950.63
2022-12-13T00:39:48.567Z,100941.97
2022-12-13T00:42:15.468Z,100944.78
2022-12-13T00:44:42.334Z,100951.69
2022-12-13T00:47:10.003Z,100958.56
2022-12-13T00:49:36.945Z,100951.72
2022-12-13T00:52:03.892Z,100944.03
2022-12-13T00:54:30.804Z,100942.44
2022-12-13T00:56:57.664Z,100945.00
2022-12-13T00:59:24.909Z,100940.69
2022-12-13T01:01:53.458Z,100931.31
2022-12-13T01:04:21.280Z,100933.03
2022-12-13T01:06:49.946Z,100939.13
2022-12-13T01:09:27.211Z,100935.75
2022-12-13T01:11:59.170Z,100934.09
2022-12-13T01:14:26.798Z,100928.78
2022-12-13T01:16:55.724Z,100935.56
2022-12-13T01:19:28.084Z,100935.34
2022-12-13T01:22:01.806Z,100934.28
2022-12-13T01:24:30.375Z,100932.41
2022-12-13T01:26:58.083Z,100930.41
2022-12-13T01:29:26.707Z,100940.53
2022-12-13T01:31:54.162Z,100931.84
2022-12-13T01:34:26.506Z,100931.75
2022-12-13T01:36:57.906Z,100938.56
2022-12-13T01:39:27.161Z,100939.38
2022-12-13T01:41:59.398Z,100946.91
2022-12-13T01:45:03.825Z,100941.72
2022-12-13T01:47:41.377Z,100926.75
2022-12-13T01:50:18.426Z,100942.38
2022-12-13T01:52:46.237Z,100943.19
2022-12-13T01:55:14.788Z,100942.38
2022-12-13T01:57:45.910Z,100950.13
2022-12-13T02:00:14.986Z,100950.28
2022-12-13T02:02:42.020Z,100935.56
2022-12-13T02:05:23.054Z,100950.50
2022-12-13T02:07:51.210Z,100955.78
2022-12-13T02:10:18.204Z,100955.03
2022-12-13T02:12:45.350Z,100956.00
2022-12-13T02:15:17.042Z,100959.53
2022-12-13T02:18:09.744Z,100957.91
2022-12-13T02:21:06.851Z,100952.84
2022-12-13T02:24:09.460Z,100946.69
2022-12-13T02:27:01.908Z,100954.44
2022-12-13T02:29:58.058Z,100937.53
2022-12-13T02:32:57.721Z,100954.75
2022-12-13T02:35:44.610Z,100943.69
2022-12-13T02:38:40.294Z,100959.06
2022-12-13T02:41:18.254Z,100964.28
2022-12-13T02:43:49.406Z,100962.66
2022-12-13T02:46:21.716Z,100953.34
2022-12-13T02:48:51.351Z,100953.41
2022-12-13T02:51:19.649Z,100956.94
2022-12-13T02:53:46.891Z,100958.69
2022-12-13T02:56:14.168Z,100962.13
2022-12-13T02:58:49.969Z,100956.94
2022-12-13T03:01:41.570Z,100952.47
2022-12-13T03:05:06.941Z,100957.44
2022-12-13T03:08:08.942Z,100952.06
2022-12-13T03:10:57.011Z,100956.97
2022-12-13T03:13:48.027Z,100956.00
2022-12-13T03:16:26.062Z,100950.78
2022-12-13T03:18:58.295Z,100953.28
2022-12-13T03:21:25.854Z,100950.78
2022-12-13T03:23:52.785Z,100948.81
2022-12-13T03:26:26.659Z,100948.00
2022-12-13T03:28:54.428Z,100948.69
2022-12-13T03:31:21.517Z,100941.34
2022-12-13T03:33:48.539Z,100943.03
2022-12-13T03:36:16.702Z,100942.81
2022-12-13T03:38:44.879Z,100933.22
2022-12-13T03:41:15.847Z,100938.09
2022-12-13T03:43:43.050Z,100941.34
2022-12-13T03:46:10.566Z,100944.53
2022-12-13T03:48:37.794Z,100946.09
2022-12-13T03:51:05.237Z,100947.50
2022-12-13T03:53:34.591Z,100957.56
2022-12-13T03:56:05.159Z,100946.22
2022-12-13T03:58:36.244Z,100950.28
2022-12-13T04:01:12.525Z,100946.53
2022-12-13T04:03:43.020Z,100946.94
2022-12-13T04:06:10.447Z,100952.22
2022-12-13T04:08:39.008Z,100948.63
2022-12-13T04:11:25.168Z,100948.41
2022-12-13T04:13:53.933Z,100941.13
2022-12-13T04:16:21.960Z,100939.44
2022-12-13T04:18:48.993Z,100937.63
2022-12-13T04:21:16.103Z,100926.09
2022-12-13T04:23:42.961Z,100934.81
2022-12-13T04:26:10.388Z,100935.53
2022-12-13T04:28:37.299Z,100938.81
2022-12-13T04:31:04.462Z,100929.22
2022-12-13T04:33:32.706Z,100930.81
2022-12-13T04:36:00.328Z,100934.03
2022-12-13T04:38:27.513Z,100938.09
2022-12-13T04:40:54.438Z,100913.53
2022-12-13T04:43:21.308Z,100932.66
2022-12-13T04:45:48.263Z,100921.38
2022-12-13T04:48:30.213Z,100927.16
2022-12-13T04:51:01.319Z,100920.19
2022-12-13T04:53:29.977Z,100925.16
2022-12-13T04:55:56.954Z,100924.97
2022-12-13T04:58:23.838Z,100930.03
2022-12-13T05:00:50.816Z,100926.34
2022-12-13T05:03:17.738Z,100927.06
2022-12-13T05:05:44.628Z,100932.91
2022-12-13T05:08:11.611Z,100922.41
2022-12-13T05:10:38.545Z,100929.13
2022-12-13T05:13:06.655Z,100929.03
2022-12-13T05:15:34.283Z,100931.50
2022-12-13T05:18:09.580Z,100930.53
2022-12-13T05:20:39.513Z,100931.25
2022-12-13T05:23:06.474Z,100930.38
2022-12-13T05:25:34.711Z,100928.53
2022-12-13T05:28:08.914Z,100925.03
2022-12-13T05:30:48.465Z,100924.06
2022-12-13T05:33:15.341Z,100927.41
2022-12-13T05:35:42.499Z,100918.84
2022-12-13T05:38:09.546Z,100920.28
2022-12-13T05:40:36.439Z,100923.09
2022-12-13T05:43:03.324Z,100916.13
2022-12-13T05:45:48.535Z,100919.50
2022-12-13T05:48:15.419Z,100913.00
2022-12-13T05:50:52.488Z,100921.69
2022-12-13T05:53:37.954Z,100924.19
2022-12-13T05:56:05.088Z,100916.09
2022-12-13T05:58:35.453Z,100924.09
2022-12-13T06:01:08.461Z,100929.22
2022-12-13T06:03:36.029Z,100925.78
2022-12-13T06:06:04.051Z,100923.38
2022-12-13T06:08:31.312Z,100932.81
2022-12-13T06:11:11.680Z,100924.50
2022-12-13T06:13:44.157Z,100922.94
2022-12-13T06:16:23.346Z,100923.97
2022-12-13T06:18:59.348Z,100931.00
2022-12-13T06:21:43.456Z,100926.16
2022-12-13T06:24:14.667Z,100934.84
2022-12-13T06:26:41.797Z,100935.03
2022-12-13T06:29:08.660Z,100938.88
2022-12-13T06:31:35.557Z,100922.56
2022-12-13T06:34:14.417Z,100935.03
2022-12-13T06:36:43.018Z,100932.81
2022-12-13T06:39:09.935Z,100933.03
2022-12-13T06:41:37.064Z,100927.94
2022-12-13T06:44:04.726Z,100940.25
2022-12-13T06:46:31.668Z,100930.81
2022-12-13T06:48:58.637Z,100942.44
2022-12-13T06:51:33.303Z,100949.44
2022-12-13T06:54:04.452Z,100940.88
2022-12-13T06:56:31.744Z,100949.94
2022-12-13T06:59:01.823Z,100944.19
2022-12-13T07:01:36.776Z,100947.66
2022-12-13T07:04:28.878Z,100936.56
2022-12-13T07:06:52.974Z,100969.50
2022-12-13T07:09:19.817Z,100950.88
2022-12-13T07:11:51.945Z,100957.03
2022-12-13T07:14:19.834Z,100961.44
2022-12-13T07:16:46.684Z,100963.28
2022-12-13T07:19:23.387Z,100957.44
2022-12-13T07:21:52.175Z,100958.53
2022-12-13T07:24:19.089Z,100954.38
2022-12-13T07:26:46.359Z,100957.09
2022-12-13T07:29:13.305Z,100951.88
2022-12-13T07:31:49.386Z,100965.00
2022-12-13T07:34:16.250Z,100959.22
2022-12-13T07:36:43.150Z,100963.56
2022-12-13T07:39:10.807Z,100963.78
2022-12-13T07:41:37.689Z,100956.09
2022-12-13T07:44:05.225Z,100963.19
2022-12-13T07:46:33.889Z,100967.59
2022-12-13T07:49:05.322Z,100969.44
2022-12-13T07:51:35.104Z,100973.81
2022-12-13T07:54:07.170Z,100969.66
2022-12-13T07:56:35.641Z,100968.94
2022-12-13T07:59:02.620Z,100973.34
2022-12-13T08:01:35.234Z,100980.28
2022-12-13T08:04:03.667Z,100966.28
2022-12-13T08:06:34.899Z,100985.66
2022-12-13T08:09:02.018Z,100979.56
2022-12-13T08:11:28.922Z,100989.31
2022-12-13T08:13:55.752Z,100992.88
2022-12-13T08:16:28.135Z,100981.84
2022-12-13T08:19:02.486Z,100991.56
2022-12-13T08:21:57.367Z,100991.78
2022-12-13T08:24:30.307Z,100996.28
2022-12-13T08:27:02.944Z,100984.47
2022-12-13T08:29:34.986Z,100988.97
2022-12-13T08:32:10.430Z,100984.66
2022-12-13T08:34:37.860Z,100992.63
2022-12-13T08:37:05.033Z,100998.97
2022-12-13T08:39:37.576Z,101008.38
2022-12-13T08:42:19.290Z,100996.63
2022-12-13T08:44:48.795Z,100996.78
2022-12-13T08:47:23.664Z,101002.13
2022-12-13T08:50:03.017Z,100981.56
2022-12-13T08:52:40.244Z,100987.78
2022-12-13T08:55:14.278Z,100991.44
2022-12-13T08:57:42.832Z,100997.56
2022-12-13T09:00:14.321Z,100996.00
2022-12-13T09:02:41.278Z,100996.19
2022-12-13T09:05:10.127Z,100998.16
2022-12-13T09:07:39.459Z,101000.84
2022-12-13T09:10:25.697Z,101004.59
2022-12-13T09:13:01.031Z,100994.53
2022-12-13T09:15:33.896Z,101003.38
2022-12-13T09:18:04.264Z,101007.00
2022-12-13T09:20:41.067Z,101012.38
2022-12-13T09:23:14.230Z,101004.06
2022-12-13T09:26:05.160Z,101000.81
2022-12-13T09:28:35.506Z,101008.66
2022-12-13T09:31:07.502Z,101007.16
2022-12-13T09:33:40.805Z,101009.16
2022-12-13T09:36:11.794Z,101009.31
2022-12-13T09:38:39.085Z,101014.66
2022-12-13T09:41:29.218Z,101011.44
2022-12-13T09:44:06.164Z,101009.88
2022-12-13T09:46:54.561Z,101013.47
2022-12-13T09:49:39.400Z,101014.47
2022-12-13T09:52:21.304Z,101012.00
2022-12-13T09:54:55.884Z,101020.75
2022-12-13T09:57:33.931Z,101016.59
2022-12-13T10:00:13.679Z,101014.25
2022-12-13T10:02:49.008Z,101021.19
2022-12-13T10:05:35.750Z,101012.00
2022-12-13T10:08:15.132Z,101014.63
2022-12-13T10:10:43.651Z,101023.47
2022-12-13T10:13:39.505Z,101017.53
2022-12-13T10:16:37.133Z,101022.78
2022-12-13T10:19:29.567Z,101015.28
2022-12-13T10:22:01.490Z,101016.28
2022-12-13T10:24:49.643Z,101009.25
2022-12-13T10:27:42.422Z,101026.00
2022-12-13T10:30:16.923Z,101016.75
2022-12-13T10:32:57.109Z,101017.72
2022-12-13T10:35:37.204Z,101016.97
2022-12-13T10:38:31.464Z,101009.25
2022-12-13T10:41:00.925Z,101004.97
2022-12-13T10:43:32.820Z,101006.94
2022-12-13T10:46:03.983Z,101001.16
2022-12-13T10:48:38.873Z,101003.84
2022-12-13T10:51:20.056Z,100993.50
2022-12-13T10:53:54.681Z,100988.41
2022-12-13T10:56:33.386Z,101005.66
2022-12-13T10:59:18.372Z,100998.91
2022-12-13T11:01:45.407Z,101002.22
2022-12-13T11:04:33.053Z,100999.84
2022-12-13T11:07:22.532Z,100996.44
2022-12-13T11:09:52.307Z,100988.03
2022-12-13T11:12:26.412Z,100980.34
2022-12-13T11:15:03.592Z,100976.22
2022-12-13T11:17:46.601Z,100976.41
2022-12-13T11:20:23.615Z,100980.03
2022-12-13T11:23:04.678Z,100976.81
2022-12-13T11:25:40.148Z,100976.84
2022-12-13T11:28:31.956Z,100977.09
2022-12-13T11:31:20.830Z,100975.41
2022-12-13T11:34:02.646Z,100980.63
2022-12-13T11:36:55.084Z,100975.66
2022-12-13T11:39:32.085Z,100978.34
2022-12-13T11:42:21.409Z,100976.69
2022-12-13T11:44:58.759Z,100966.25
2022-12-13T11:47:39.934Z,100968.16
2022-12-13T11:50:34.293Z,100968.97
2022-12-13T11:53:29.205Z,100972.41
2022-12-13T11:56:28.564Z,100971.47
2022-12-13T11:59:40.294Z,100966.22
2022-12-13T12:02:36.007Z,100974.53
2022-12-13T12:05:25.463Z,100967.47
2022-12-13T12:08:31.758Z,100969.91
2022-12-13T12:10:50.458Z,100961.38
2022-12-13T12:13:24.582Z,100951.19
2022-12-13T12:16:23.430Z,100957.16
2022-12-13T12:18:51.938Z,100946.69
2022-12-13T12:22:12.246Z,100965.09
2022-12-13T12:24:57.502Z,100955.69
2022-12-13T12:27:55.139Z,100961.78
2022-12-13T12:31:13.268Z,100959.03
2022-12-13T12:33:55.530Z,100950.44
2022-12-13T12:37:06.275Z,100956.34
2022-12-13T12:39:41.572Z,100957.09
2022-12-13T12:42:44.577Z,100962.19
2022-12-13T12:45:57.947Z,100957.00
2022-12-13T12:49:27.768Z,100963.00
2022-12-13T12:52:46.744Z,100960.44
2022-12-13T12:55:58.908Z,100955.19
2022-12-13T12:59:06.599Z,100954.16
2022-12-13T13:01:59.271Z,100951.47
2022-12-13T13:04:42.266Z,100956.59
2022-12-13T13:07:29.649Z,100955.69
2022-12-13T13:09:58.168Z,100949.63
2022-12-13T13:12:44.180Z,100955.66
2022-12-13T13:15:32.781Z,100950.31
2022-12-13T13:18:00.738Z,100946.88
2022-12-13T13:20:29.121Z,100950.31
2022-12-13T13:23:31.925Z,100945.97
2022-12-13T13:26:15.826Z,100953.66
2022-12-13T13:28:42.369Z,100953.66
2022-12-13T13:31:10.274Z,100950.19
2022-12-13T13:33:50.933Z,100953.56
2022-12-13T13:36:46.539Z,100949.19
2022-12-13T13:40:01.440Z,100955.09
2022-12-13T13:42:32.770Z,100948.22
2022-12-13T13:45:18.022Z,100949.84
2022-12-13T13:48:15.917Z,100955.75
2022-12-13T13:51:09.579Z,100957.44
2022-12-13T13:54:06.868Z,100953.06
2022-12-13T13:56:36.109Z,100963.34
2022-12-13T13:59:54.522Z,100960.66
2022-12-13T14:03:00.507Z,100959.72
2022-12-13T14:06:11.475Z,100958.09
2022-12-13T14:09:41.782Z,100958.88
2022-12-13T14:13:02.566Z,100962.22
2022-12-13T14:16:21.109Z,100959.63
2022-12-13T14:19:18.967Z,100965.66
2022-12-13T14:22:04.159Z,100968.22
2022-12-13T14:25:15.519Z,100970.00
2022-12-13T14:28:14.433Z,100967.34
2022-12-13T14:30:48.182Z,100973.44
2022-12-13T14:33:25.909Z,100974.94
2022-12-13T14:35:59.949Z,100973.44
2022-12-13T14:38:30.925Z,100974.31
2022-12-13T14:41:01.830Z,100977.72
2022-12-13T14:43:34.572Z,100972.56
2022-12-13T14:46:05.197Z,100985.44
2022-12-13T14:48:49.122Z,100977.75
2022-12-13T14:51:38.232Z,100981.16
2022-12-13T14:54:07.951Z,100975.25
2022-12-13T14:56:35.598Z,100980.41
2022-12-13T14:59:12.255Z,100984.59
2022-12-13T15:01:40.693Z,100983.66
2022-12-13T15:04:30.867Z,100989.69
2022-12-13T15:07:11.360Z,100991.34
2022-12-13T15:09:42.014Z,100982.66
2022-12-13T15:12:25.344Z,100991.25
2022-12-13T15:15:00.427Z,100984.41
2022-12-13T15:17:39.528Z,100983.47
2022-12-13T15:20:28.370Z,100983.34
2022-12-13T15:23:30.334Z,100978.97
2022-12-13T15:26:28.721Z,100975.44
2022-12-13T15:29:00.681Z,100969.50
2022-12-13T15:31:28.544Z,100971.19
2022-12-13T15:34:00.991Z,100971.97
2022-12-13T15:36:29.603Z,100967.41
2022-12-13T15:38:56.336Z,100984.81
2022-12-13T15:41:28.104Z,100987.06
2022-12-13T15:44:14.992Z,100983.88
2022-12-13T15:46:46.711Z,100979.41
2022-12-13T15:49:32.836Z,100980.34
2022-12-13T15:52:14.984Z,100985.50
2022-12-13T15:54:43.075Z,100979.34
2022-12-13T15:57:24.530Z,100975.97
2022-12-13T16:00:30.222Z,100968.94
2022-12-13T16:03:08.810Z,100975.78
2022-12-13T16:05:42.511Z,100978.34
2022-12-13T16:08:28.377Z,100972.25
2022-12-13T16:10:55.736Z,100973.19
2022-12-13T16:13:33.272Z,100967.94
2022-12-13T16:16:39.099Z,100975.66
2022-12-13T16:19:18.122Z,100969.56
2022-12-13T16:21:45.021Z,100965.25
2022-12-13T16:24:12.272Z,100974.59
2022-12-13T16:26:46.106Z,100977.94
2022-12-13T16:29:16.965Z,100973.56
2022-12-13T16:31:44.215Z,100978.66
2022-12-13T16:34:11.593Z,100977.78
2022-12-13T16:36:38.516Z,100971.75
2022-12-13T16:39:07.732Z,100972.50
2022-12-13T16:41:41.691Z,100962.59
2022-12-13T16:44:12.679Z,100976.53
2022-12-13T16:47:12.562Z,100965.16
2022-12-13T16:49:30.778Z,100969.25
2022-12-13T16:51:57.778Z,100969.03
2022-12-13T16:54:25.931Z,100960.25
2022-12-13T16:56:54.072Z,100976.25
2022-12-13T16:59:24.745Z,100972.56
2022-12-13T17:01:52.537Z,100961.03
2022-12-13T17:04:24.673Z,100968.41
2022-12-13T17:06:54.969Z,100961.34
2022-12-13T17:09:23.213Z,100962.78
2022-12-13T17:11:50.213Z,100955.50
2022-12-13T17:14:17.110Z,100957.78
2022-12-13T17:16:44.092Z,100955.81
2022-12-13T17:19:14.518Z,100960.53
2022-12-13T17:21:41.525Z,100946.69
2022-12-13T17:24:08.870Z,100953.22
2022-12-13T17:26:35.753Z,100947.09
2022-12-13T17:29:02.952Z,100952.00
2022-12-13T17:31:35.168Z,100954.34
2022-12-13T17:34:03.040Z,100949.09
2022-12-13T17:36:31.464Z,100945.56
2022-12-13T17:38:58.779Z,100945.44
2022-12-13T17:41:25.675Z,100946.16
2022-12-13T17:43:52.626Z,100937.44
2022-12-13T17:46:19.648Z,100950.13
2022-12-13T17:48:46.827Z,100946.59
2022-12-13T17:51:14.722Z,100938.78
2022-12-13T17:53:43.811Z,100944.63
2022-12-13T17:56:15.081Z,100941.94
2022-12-13T17:58:43.511Z,100945.22
2022-12-13T18:01:23.050Z,100939.97
2022-12-13T18:03:53.383Z,100946.63
2022-12-13T18:06:20.314Z,100944.78
2022-12-13T18:08:47.616Z,100946.91
2022-12-13T18:11:32.777Z,100947.84
2022-12-13T18:14:01.930Z,100957.88
2022-12-13T18:16:36.312Z,100946.72
2022-12-13T18:19:11.736Z,100946.31
2022-12-13T18:21:39.215Z,100946.97
2022-12-13T18:24:07.419Z,100949.41
2022-12-13T18:26:34.623Z,100941.53
2022-12-13T18:29:02.092Z,100942.13
2022-12-13T18:31:29.134Z,100942.84
2022-12-13T18:33:56.171Z,100949.66
2022-12-13T18:36:25.107Z,100948.66
2022-12-13T18:38:52.235Z,100945.13
2022-12-13T18:41:22.972Z,100951.75
2022-12-13T18:44:02.555Z,100948.75
2022-12-13T18:46:32.480Z,100951.38
2022-12-13T18:48:59.784Z,100947.06
2022-12-13T18:51:27.763Z,100942.69
2022-12-13T18:53:55.911Z,100933.50
2022-12-13T18:56:23.691Z,100942.34
2022-12-13T18:58:51.979Z,100942.13
2022-12-13T19:01:19.848Z,100939.41
2022-12-13T19:03:48.686Z,100946.94
2022-12-13T19:06:25.768Z,100952.69
2022-12-13T19:08:56.301Z,100956.88
2022-12-13T19:11:26.176Z,100949.69
2022-12-13T19:13:53.191Z,100958.34
2022-12-13T19:16:22.474Z,100960.72
2022-12-13T19:18:49.688Z,100956.31
2022-12-13T19:21:19.780Z,100956.06
2022-12-13T19:23:53.183Z,100941.44
2022-12-13T19:26:24.017Z,100936.09
2022-12-13T19:28:51.073Z,100944.66
2022-12-13T19:31:18.021Z,100944.50
2022-12-13T19:33:45.050Z,100931.31
2022-12-13T19:36:12.584Z,100938.28
2022-12-13T19:38:40.409Z,100943.19
2022-12-13T19:41:09.654Z,100934.50
2022-12-13T19:43:36.883Z,100933.22
2022-12-13T19:46:04.154Z,100938.56
2022-12-13T19:48:31.395Z,100940.09
2022-12-13T19:51:00.190Z,100930.56
2022-12-13T19:53:28.716Z,100925.31
2022-12-13T19:55:56.030Z,100929.47
2022-12-13T19:58:23.879Z,100921.63
2022-12-13T20:00:51.048Z,100932.72
2022-12-13T20:03:18.101Z,100930.09
2022-12-13T20:05:45.856Z,100930.81
2022-12-13T20:08:12.896Z,100929.78
2022-12-13T20:10:39.791Z,100930.50
2022-12-13T20:13:06.812Z,100928.50
2022-12-13T20:15:33.767Z,100933.75
2022-12-13T20:18:00.660Z,100932.78
2022-12-13T20:20:47.028Z,100931.81
2022-12-13T20:23:15.347Z,100922.16
2022-12-13T20:25:42.288Z,100922.88
2022-12-13T20:28:15.961Z,100918.56
2022-12-13T20:30:43.206Z,100921.03
2022-12-13T20:33:10.079Z,100914.00
2022-12-13T20:35:54.222Z,100918.22
2022-12-13T20:38:24.846Z,100909.59
2022-12-13T20:40:51.733Z,100913.72
2022-12-13T20:43:18.606Z,100918.69
2022-12-13T20:45:45.509Z,100916.94
2022-12-13T20:48:12.371Z,100918.63
2022-12-13T20:50:39.236Z,100914.28
2022-12-13T20:53:06.321Z,100914.22
2022-12-13T20:55:35.128Z,100919.34
2022-12-13T20:58:02.010Z,100914.13
2022-12-13T21:00:29.580Z,100913.97
2022-12-13T21:02:56.527Z,100913.09
2022-12-13T21:05:23.392Z,100909.56
2022-12-13T21:08:08.904Z,100913.72
2022-12-13T21:10:35.775Z,100904.22
2022-12-13T21:13:02.664Z,100917.78
2022-12-13T21:15:29.544Z,100901.22
2022-12-13T21:17:56.440Z,100914.06
2022-12-13T21:20:23.451Z,100905.47
2022-12-13T21:22:50.901Z,100907.06
2022-12-13T21:25:17.747Z,100916.41
2022-12-13T21:27:44.648Z,100908.75
2022-12-13T21:30:15.227Z,100894.72
2022-12-13T21:32:42.097Z,100910.31
2022-12-13T21:35:09.529Z,100905.13
2022-12-13T21:37:39.095Z,100902.41
2022-12-13T21:40:06.886Z,100900.56
2022-12-13T21:42:33.757Z,100898.81
2022-12-13T21:45:02.443Z,100897.84
2022-12-13T21:47:29.524Z,100891.66
2022-12-13T21:49:56.392Z,100896.78
2022-12-13T21:52:23.279Z,100891.66
2022-12-13T21:55:03.381Z,100888.13
2022-12-13T21:57:56.835Z,100885.53
2022-12-13T22:00:23.698Z,100878.47
2022-12-13T22:02:50.566Z,100884.38
2022-12-13T22:05:17.492Z,100884.28
2022-12-13T22:07:44.488Z,100876.56
2022-12-13T22:10:15.044Z,100869.66
2022-12-13T22:12:41.970Z,100867.94
2022-12-13T22:15:14.956Z,100863.53
2022-12-13T22:17:43.061Z,100869.50
2022-12-13T22:20:13.618Z,100852.50
2022-12-13T22:22:42.363Z,100846.53
2022-12-13T22:25:09.930Z,100837.75
2022-12-13T22:27:36.835Z,100839.56
2022-12-13T22:30:04.771Z,100843.72
2022-12-13T22:32:32.716Z,100847.94
2022-12-13T22:35:00.070Z,100835.09
2022-12-13T22:37:27.306Z,100826.66
2022-12-13T22:39:54.343Z,100828.34
2022-12-13T22:42:21.286Z,100832.53
2022-12-13T22:44:48.227Z,100829.91
2022-12-13T22:47:15.175Z,100825.78
2022-12-13T22:49:42.044Z,100818.91
2022-12-13T22:52:09.002Z,100826.66
2022-12-13T22:54:35.933Z,100827.44
2022-12-13T22:57:02.933Z,100816.19
2022-12-13T22:59:29.893Z,100817.91
2022-12-13T23:02:02.034Z,100815.38
2022-12-13T23:04:31.622Z,100811.94
2022-12-13T23:06:58.547Z,100806.75
2022-12-13T23:09:25.405Z,100799.03
2022-12-13T23:12:11.195Z,100799.03
2022-12-13T23:14:38.075Z,100795.50
2022-12-13T23:17:05.676Z,100798.84
2022-12-13T23:19:50.215Z,100788.66
2022-12-13T23:22:22.997Z,100786.00
2022-12-13T23:24:51.062Z,100781.75
2022-12-13T23:27:20.327Z,100783.53
2022-12-13T23:29:47.201Z,100778.44
2022-12-13T23:32:14.438Z,100780.09
2022-12-13T23:34:41.584Z,100775.88
2022-12-13T23:37:08.482Z,100762.16
2022-12-13T23:39:35.367Z,100766.38
2022-12-13T23:42:02.257Z,100768.03
2022-12-13T23:44:29.121Z,100760.31
2022-12-13T23:46:56.082Z,100753.44
2022-12-13T23:49:22.947Z,100760.22
2022-12-13T23:51:49.835Z,100756.78
2022-12-13T23:54:19.379Z,100763.63
2022-12-13T23:56:47.196Z,100765.31
2022-12-13T23:59:14.084Z,100757.59
